sensor_id;sensor_type;location;lat;lon;timestamp;temperature;humidity
52513;DHT22;38422;53.172;6.974;2023-12-04T00:00:49;0.30;99.90
52513;DHT22;38422;53.172;6.974;2023-12-04T00:03:15;0.30;99.90
52513;DHT22;38422;53.172;6.974;2023-12-04T00:05:44;0.30;99.90
52513;DHT22;38422;53.172;6.974;2023-12-04T00:08:09;0.30;99.90
52513;DHT22;38422;53.172;6.974;2023-12-04T00:10:36;0.30;99.90
52513;DHT22;38422;53.172;6.974;2023-12-04T00:13:02;0.30;99.90
52513;DHT22;38422;53.172;6.974;2023-12-04T00:15:28;0.30;99.90
52513;DHT22;38422;53.172;6.974;2023-12-04T00:17:53;0.30;99.90
52513;DHT22;38422;53.172;6.974;2023-12-04T00:20:19;0.30;99.90
52513;DHT22;38422;53.172;6.974;2023-12-04T00:22:45;0.30;99.90
52513;DHT22;38422;53.172;6.974;2023-12-04T00:25:11;0.20;99.90
52513;DHT22;38422;53.172;6.974;2023-12-04T00:27:37;0.30;99.90
52513;DHT22;38422;53.172;6.974;2023-12-04T00:30:03;0.30;99.90
52513;DHT22;38422;53.172;6.974;2023-12-04T00:32:32;0.30;99.90
52513;DHT22;38422;53.172;6.974;2023-12-04T00:34:58;0.30;99.90
52513;DHT22;38422;53.172;6.974;2023-12-04T00:37:23;0.30;99.90
52513;DHT22;38422;53.172;6.974;2023-12-04T00:39:49;0.20;99.90
52513;DHT22;38422;53.172;6.974;2023-12-04T00:42:15;0.20;99.90
52513;DHT22;38422;53.172;6.974;2023-12-04T00:44:40;0.20;99.90
52513;DHT22;38422;53.172;6.974;2023-12-04T00:47:06;0.20;99.90
52513;DHT22;38422;53.172;6.974;2023-12-04T00:49:32;0.20;99.90
52513;DHT22;38422;53.172;6.974;2023-12-04T00:51:57;0.20;99.90
52513;DHT22;38422;53.172;6.974;2023-12-04T00:54:23;0.20;99.90
52513;DHT22;38422;53.172;6.974;2023-12-04T00:56:49;0.20;99.90
52513;DHT22;38422;53.172;6.974;2023-12-04T00:59:14;0.20;99.90
52513;DHT22;38422;53.172;6.974;2023-12-04T01:01:40;0.20;99.90
52513;DHT22;38422;53.172;6.974;2023-12-04T01:04:06;0.20;99.90
52513;DHT22;38422;53.172;6.974;2023-12-04T01:06:31;0.20;99.90
52513;DHT22;38422;53.172;6.974;2023-12-04T01:08:57;0.10;99.90
52513;DHT22;38422;53.172;6.974;2023-12-04T01:11:23;0.10;99.90
52513;DHT22;38422;53.172;6.974;2023-12-04T01:13:49;0.10;99.90
52513;DHT22;38422;53.172;6.974;2023-12-04T01:16:15;0.10;99.90
52513;DHT22;38422;53.172;6.974;2023-12-04T01:18:42;0.10;99.90
52513;DHT22;38422;53.172;6.974;2023-12-04T01:21:08;0.10;99.90
52513;DHT22;38422;53.172;6.974;2023-12-04T01:23:35;0.10;99.90
52513;DHT22;38422;53.172;6.974;2023-12-04T01:26:01;0.10;99.90
52513;DHT22;38422;53.172;6.974;2023-12-04T01:28:27;0.10;99.90
52513;DHT22;38422;53.172;6.974;2023-12-04T01:30:53;0.10;99.90
52513;DHT22;38422;53.172;6.974;2023-12-04T01:33:19;0.10;99.90
52513;DHT22;38422;53.172;6.974;2023-12-04T01:35:44;0.10;99.90
52513;DHT22;38422;53.172;6.974;2023-12-04T01:38:10;0.10;99.90
52513;DHT22;38422;53.172;6.974;2023-12-04T01:40:36;0.10;99.90
52513;DHT22;38422;53.172;6.974;2023-12-04T01:43:02;0.10;99.90
52513;DHT22;38422;53.172;6.974;2023-12-04T01:45:27;0.10;99.90
52513;DHT22;38422;53.172;6.974;2023-12-04T01:47:53;0.10;99.90
52513;DHT22;38422;53.172;6.974;2023-12-04T01:50:20;0.20;99.90
52513;DHT22;38422;53.172;6.974;2023-12-04T01:52:46;0.20;99.90
52513;DHT22;38422;53.172;6.974;2023-12-04T01:55:13;0.10;99.90
52513;DHT22;38422;53.172;6.974;2023-12-04T01:57:40;0.20;99.90
52513;DHT22;38422;53.172;6.974;2023-12-04T02:00:06;0.20;99.90
52513;DHT22;38422;53.172;6.974;2023-12-04T02:02:38;0.20;99.90
52513;DHT22;38422;53.172;6.974;2023-12-04T02:05:07;0.20;99.90
52513;DHT22;38422;53.172;6.974;2023-12-04T02:07:33;0.20;99.90
52513;DHT22;38422;53.172;6.974;2023-12-04T02:09:59;0.20;99.90
52513;DHT22;38422;53.172;6.974;2023-12-04T02:12:25;0.20;99.90
52513;DHT22;38422;53.172;6.974;2023-12-04T02:14:51;0.20;99.90
52513;DHT22;38422;53.172;6.974;2023-12-04T02:17:18;0.20;99.90
52513;DHT22;38422;53.172;6.974;2023-12-04T02:19:45;0.20;99.90
52513;DHT22;38422;53.172;6.974;2023-12-04T02:22:10;0.20;99.90
52513;DHT22;38422;53.172;6.974;2023-12-04T02:24:36;0.20;99.90
52513;DHT22;38422;53.172;6.974;2023-12-04T02:27:22;0.20;99.90
52513;DHT22;38422;53.172;6.974;2023-12-04T02:29:55;0.20;99.90
52513;DHT22;38422;53.172;6.974;2023-12-04T02:32:23;0.20;99.90
52513;DHT22;38422;53.172;6.974;2023-12-04T02:34:49;0.20;99.90
52513;DHT22;38422;53.172;6.974;2023-12-04T02:37:17;0.20;99.90
52513;DHT22;38422;53.172;6.974;2023-12-04T02:39:43;0.20;99.90
52513;DHT22;38422;53.172;6.974;2023-12-04T02:42:09;0.20;99.90
52513;DHT22;38422;53.172;6.974;2023-12-04T02:44:34;0.20;99.90
52513;DHT22;38422;53.172;6.974;2023-12-04T02:47:00;0.10;99.90
52513;DHT22;38422;53.172;6.974;2023-12-04T02:49:26;0.10;99.90
52513;DHT22;38422;53.172;6.974;2023-12-04T02:51:52;0.20;99.90
52513;DHT22;38422;53.172;6.974;2023-12-04T02:54:17;0.20;99.90
52513;DHT22;38422;53.172;6.974;2023-12-04T02:56:43;0.20;99.90
52513;DHT22;38422;53.172;6.974;2023-12-04T02:59:09;0.20;99.90
52513;DHT22;38422;53.172;6.974;2023-12-04T03:01:34;0.10;99.90
52513;DHT22;38422;53.172;6.974;2023-12-04T03:04:00;0.10;99.90
52513;DHT22;38422;53.172;6.974;2023-12-04T03:06:26;0.20;99.90
52513;DHT22;38422;53.172;6.974;2023-12-04T03:08:51;0.20;99.90
52513;DHT22;38422;53.172;6.974;2023-12-04T03:11:17;0.20;99.90
52513;DHT22;38422;53.172;6.974;2023-12-04T03:13:43;0.10;99.90
52513;DHT22;38422;53.172;6.974;2023-12-04T03:16:16;0.10;99.90
52513;DHT22;38422;53.172;6.974;2023-12-04T03:18:42;0.10;99.90
52513;DHT22;38422;53.172;6.974;2023-12-04T03:21:08;0.10;99.90
52513;DHT22;38422;53.172;6.974;2023-12-04T03:23:34;0.10;99.90
52513;DHT22;38422;53.172;6.974;2023-12-04T03:25:59;0.10;99.90
52513;DHT22;38422;53.172;6.974;2023-12-04T03:28:25;0.10;99.90
52513;DHT22;38422;53.172;6.974;2023-12-04T03:30:53;0.10;99.90
52513;DHT22;38422;53.172;6.974;2023-12-04T03:33:19;0.10;99.90
52513;DHT22;38422;53.172;6.974;2023-12-04T03:35:45;0.10;99.90
52513;DHT22;38422;53.172;6.974;2023-12-04T03:38:10;0.10;99.90
52513;DHT22;38422;53.172;6.974;2023-12-04T03:40:36;0.10;99.90
52513;DHT22;38422;53.172;6.974;2023-12-04T03:43:02;0.10;99.90
52513;DHT22;38422;53.172;6.974;2023-12-04T03:45:27;0.10;99.90
52513;DHT22;38422;53.172;6.974;2023-12-04T03:47:53;0.20;99.90
52513;DHT22;38422;53.172;6.974;2023-12-04T03:50:19;0.20;99.90
52513;DHT22;38422;53.172;6.974;2023-12-04T03:52:45;0.20;99.90
52513;DHT22;38422;53.172;6.974;2023-12-04T03:55:10;0.20;99.90
52513;DHT22;38422;53.172;6.974;2023-12-04T03:57:36;0.20;99.90
52513;DHT22;38422;53.172;6.974;2023-12-04T04:00:02;0.20;99.90
52513;DHT22;38422;53.172;6.974;2023-12-04T04:02:28;0.20;99.90
52513;DHT22;38422;53.172;6.974;2023-12-04T04:04:54;0.20;99.90
52513;DHT22;38422;53.172;6.974;2023-12-04T04:07:20;0.20;99.90
52513;DHT22;38422;53.172;6.974;2023-12-04T04:09:46;0.20;99.90
52513;DHT22;38422;53.172;6.974;2023-12-04T04:12:12;0.20;99.90
52513;DHT22;38422;53.172;6.974;2023-12-04T04:14:37;0.20;99.90
52513;DHT22;38422;53.172;6.974;2023-12-04T04:17:03;0.20;99.90
52513;DHT22;38422;53.172;6.974;2023-12-04T04:19:29;0.20;99.90
52513;DHT22;38422;53.172;6.974;2023-12-04T04:21:55;0.20;99.90
52513;DHT22;38422;53.172;6.974;2023-12-04T04:24:21;0.20;99.90
52513;DHT22;38422;53.172;6.974;2023-12-04T04:26:46;0.20;99.90
52513;DHT22;38422;53.172;6.974;2023-12-04T04:29:13;0.20;99.90
52513;DHT22;38422;53.172;6.974;2023-12-04T04:31:38;0.20;99.90
52513;DHT22;38422;53.172;6.974;2023-12-04T04:34:04;0.20;99.90
52513;DHT22;38422;53.172;6.974;2023-12-04T04:36:30;0.30;99.90
52513;DHT22;38422;53.172;6.974;2023-12-04T04:38:55;0.30;99.90
52513;DHT22;38422;53.172;6.974;2023-12-04T04:41:21;0.30;99.90
52513;DHT22;38422;53.172;6.974;2023-12-04T04:43:47;0.30;99.90
52513;DHT22;38422;53.172;6.974;2023-12-04T04:46:13;0.30;99.90
52513;DHT22;38422;53.172;6.974;2023-12-04T04:48:39;0.30;99.90
52513;DHT22;38422;53.172;6.974;2023-12-04T04:51:05;0.30;99.90
52513;DHT22;38422;53.172;6.974;2023-12-04T04:53:31;0.30;99.90
52513;DHT22;38422;53.172;6.974;2023-12-04T04:55:56;0.30;99.90
52513;DHT22;38422;53.172;6.974;2023-12-04T04:58:22;0.30;99.90
52513;DHT22;38422;53.172;6.974;2023-12-04T05:00:48;0.30;99.90
52513;DHT22;38422;53.172;6.974;2023-12-04T05:03:13;0.30;99.90
52513;DHT22;38422;53.172;6.974;2023-12-04T05:05:39;0.30;99.90
52513;DHT22;38422;53.172;6.974;2023-12-04T05:08:05;0.30;99.90
52513;DHT22;38422;53.172;6.974;2023-12-04T05:10:30;0.30;99.90
52513;DHT22;38422;53.172;6.974;2023-12-04T05:12:56;0.30;99.90
52513;DHT22;38422;53.172;6.974;2023-12-04T05:15:22;0.30;99.90
52513;DHT22;38422;53.172;6.974;2023-12-04T05:17:47;0.30;99.90
52513;DHT22;38422;53.172;6.974;2023-12-04T05:20:13;0.40;99.90
52513;DHT22;38422;53.172;6.974;2023-12-04T05:22:40;0.40;99.90
52513;DHT22;38422;53.172;6.974;2023-12-04T05:25:06;0.40;99.90
52513;DHT22;38422;53.172;6.974;2023-12-04T05:27:32;0.40;99.90
52513;DHT22;38422;53.172;6.974;2023-12-04T05:29:57;0.40;99.90
52513;DHT22;38422;53.172;6.974;2023-12-04T05:32:23;0.40;99.90
52513;DHT22;38422;53.172;6.974;2023-12-04T05:34:49;0.40;99.90
52513;DHT22;38422;53.172;6.974;2023-12-04T05:37:15;0.40;99.90
52513;DHT22;38422;53.172;6.974;2023-12-04T05:39:41;0.30;99.90
52513;DHT22;38422;53.172;6.974;2023-12-04T05:42:07;0.30;99.90
52513;DHT22;38422;53.172;6.974;2023-12-04T05:44:33;0.30;99.90
52513;DHT22;38422;53.172;6.974;2023-12-04T05:47:00;0.30;99.90
52513;DHT22;38422;53.172;6.974;2023-12-04T05:49:26;0.30;99.90
52513;DHT22;38422;53.172;6.974;2023-12-04T05:51:51;0.20;99.90
52513;DHT22;38422;53.172;6.974;2023-12-04T05:54:17;0.20;99.90
52513;DHT22;38422;53.172;6.974;2023-12-04T05:56:43;0.20;99.90
52513;DHT22;38422;53.172;6.974;2023-12-04T05:59:08;0.30;99.90
52513;DHT22;38422;53.172;6.974;2023-12-04T06:01:34;0.20;99.90
52513;DHT22;38422;53.172;6.974;2023-12-04T06:04:00;0.30;99.90
52513;DHT22;38422;53.172;6.974;2023-12-04T06:06:26;0.30;99.90
52513;DHT22;38422;53.172;6.974;2023-12-04T06:08:52;0.30;99.90
52513;DHT22;38422;53.172;6.974;2023-12-04T06:11:18;0.30;99.90
52513;DHT22;38422;53.172;6.974;2023-12-04T06:13:44;0.30;99.90
52513;DHT22;38422;53.172;6.974;2023-12-04T06:16:09;0.30;99.90
52513;DHT22;38422;53.172;6.974;2023-12-04T06:18:35;0.30;99.90
52513;DHT22;38422;53.172;6.974;2023-12-04T06:21:01;0.30;99.90
52513;DHT22;38422;53.172;6.974;2023-12-04T06:23:27;0.30;99.90
52513;DHT22;38422;53.172;6.974;2023-12-04T06:25:53;0.40;99.90
52513;DHT22;38422;53.172;6.974;2023-12-04T06:28:19;0.30;99.90
52513;DHT22;38422;53.172;6.974;2023-12-04T06:30:45;0.40;99.90
52513;DHT22;38422;53.172;6.974;2023-12-04T06:33:11;0.30;99.90
52513;DHT22;38422;53.172;6.974;2023-12-04T06:35:38;0.30;99.90
52513;DHT22;38422;53.172;6.974;2023-12-04T06:38:07;0.30;99.90
52513;DHT22;38422;53.172;6.974;2023-12-04T06:40:34;0.30;99.90
52513;DHT22;38422;53.172;6.974;2023-12-04T06:43:01;0.40;99.90
52513;DHT22;38422;53.172;6.974;2023-12-04T06:45:26;0.40;99.90
52513;DHT22;38422;53.172;6.974;2023-12-04T06:47:54;0.40;99.90
52513;DHT22;38422;53.172;6.974;2023-12-04T06:50:19;0.40;99.90
52513;DHT22;38422;53.172;6.974;2023-12-04T06:52:45;0.40;99.90
52513;DHT22;38422;53.172;6.974;2023-12-04T06:55:12;0.40;99.90
52513;DHT22;38422;53.172;6.974;2023-12-04T06:57:38;0.40;99.90
52513;DHT22;38422;53.172;6.974;2023-12-04T07:00:04;0.40;99.90
52513;DHT22;38422;53.172;6.974;2023-12-04T07:02:32;0.40;99.90
52513;DHT22;38422;53.172;6.974;2023-12-04T07:04:57;0.40;99.90
52513;DHT22;38422;53.172;6.974;2023-12-04T07:07:23;0.40;99.90
52513;DHT22;38422;53.172;6.974;2023-12-04T07:09:49;0.40;99.90
52513;DHT22;38422;53.172;6.974;2023-12-04T07:12:14;0.40;99.90
52513;DHT22;38422;53.172;6.974;2023-12-04T07:14:40;0.40;99.90
52513;DHT22;38422;53.172;6.974;2023-12-04T07:17:07;0.40;99.90
52513;DHT22;38422;53.172;6.974;2023-12-04T07:19:33;0.40;99.90
52513;DHT22;38422;53.172;6.974;2023-12-04T07:21:58;0.50;99.90
52513;DHT22;38422;53.172;6.974;2023-12-04T07:24:24;0.40;99.90
52513;DHT22;38422;53.172;6.974;2023-12-04T07:26:51;0.40;99.90
52513;DHT22;38422;53.172;6.974;2023-12-04T07:29:17;0.40;99.90
52513;DHT22;38422;53.172;6.974;2023-12-04T07:31:43;0.40;99.90
52513;DHT22;38422;53.172;6.974;2023-12-04T07:34:09;0.50;99.90
52513;DHT22;38422;53.172;6.974;2023-12-04T07:36:35;0.40;99.90
52513;DHT22;38422;53.172;6.974;2023-12-04T07:39:00;0.50;99.90
52513;DHT22;38422;53.172;6.974;2023-12-04T07:41:26;0.50;99.90
52513;DHT22;38422;53.172;6.974;2023-12-04T07:43:52;0.50;99.90
52513;DHT22;38422;53.172;6.974;2023-12-04T07:46:18;0.50;99.90
52513;DHT22;38422;53.172;6.974;2023-12-04T07:48:43;0.50;99.90
52513;DHT22;38422;53.172;6.974;2023-12-04T07:51:10;0.50;99.90
52513;DHT22;38422;53.172;6.974;2023-12-04T07:53:36;0.50;99.90
52513;DHT22;38422;53.172;6.974;2023-12-04T07:56:02;0.50;99.90
52513;DHT22;38422;53.172;6.974;2023-12-04T07:58:31;0.50;99.90
52513;DHT22;38422;53.172;6.974;2023-12-04T08:00:57;0.50;99.90
52513;DHT22;38422;53.172;6.974;2023-12-04T08:03:23;0.50;99.90
52513;DHT22;38422;53.172;6.974;2023-12-04T08:05:52;0.50;99.90
52513;DHT22;38422;53.172;6.974;2023-12-04T08:08:18;0.50;99.90
52513;DHT22;38422;53.172;6.974;2023-12-04T08:10:43;0.50;99.90
52513;DHT22;38422;53.172;6.974;2023-12-04T08:13:09;0.50;99.90
52513;DHT22;38422;53.172;6.974;2023-12-04T08:15:35;0.50;99.90
52513;DHT22;38422;53.172;6.974;2023-12-04T08:18:00;0.50;99.90
52513;DHT22;38422;53.172;6.974;2023-12-04T08:20:26;0.50;99.90
52513;DHT22;38422;53.172;6.974;2023-12-04T08:22:52;0.50;99.90
52513;DHT22;38422;53.172;6.974;2023-12-04T08:25:18;0.60;99.90
52513;DHT22;38422;53.172;6.974;2023-12-04T08:27:43;0.60;99.90
52513;DHT22;38422;53.172;6.974;2023-12-04T08:30:09;0.60;99.90
52513;DHT22;38422;53.172;6.974;2023-12-04T08:32:35;0.60;99.90
52513;DHT22;38422;53.172;6.974;2023-12-04T08:35:01;0.60;99.90
52513;DHT22;38422;53.172;6.974;2023-12-04T08:37:27;0.70;99.90
52513;DHT22;38422;53.172;6.974;2023-12-04T08:39:52;0.60;99.90
52513;DHT22;38422;53.172;6.974;2023-12-04T08:42:19;0.60;99.90
52513;DHT22;38422;53.172;6.974;2023-12-04T08:44:44;0.70;99.90
52513;DHT22;38422;53.172;6.974;2023-12-04T08:47:13;0.70;99.90
52513;DHT22;38422;53.172;6.974;2023-12-04T08:49:40;0.70;99.90
52513;DHT22;38422;53.172;6.974;2023-12-04T08:52:09;0.70;99.90
52513;DHT22;38422;53.172;6.974;2023-12-04T08:54:38;0.70;99.90
52513;DHT22;38422;53.172;6.974;2023-12-04T08:57:04;0.80;99.90
52513;DHT22;38422;53.172;6.974;2023-12-04T08:59:30;0.80;99.90
52513;DHT22;38422;53.172;6.974;2023-12-04T09:01:56;0.80;99.90
52513;DHT22;38422;53.172;6.974;2023-12-04T09:04:21;0.80;99.90
52513;DHT22;38422;53.172;6.974;2023-12-04T09:06:47;0.80;99.90
52513;DHT22;38422;53.172;6.974;2023-12-04T09:09:13;0.80;99.90
52513;DHT22;38422;53.172;6.974;2023-12-04T09:11:42;0.80;99.90
52513;DHT22;38422;53.172;6.974;2023-12-04T09:14:08;0.80;99.90
52513;DHT22;38422;53.172;6.974;2023-12-04T09:16:34;0.80;99.90
52513;DHT22;38422;53.172;6.974;2023-12-04T09:18:59;0.80;99.90
52513;DHT22;38422;53.172;6.974;2023-12-04T09:21:25;0.80;99.90
52513;DHT22;38422;53.172;6.974;2023-12-04T09:23:52;0.80;99.90
52513;DHT22;38422;53.172;6.974;2023-12-04T09:26:18;0.80;99.90
52513;DHT22;38422;53.172;6.974;2023-12-04T09:28:47;0.80;99.90
52513;DHT22;38422;53.172;6.974;2023-12-04T09:31:12;0.80;99.90
52513;DHT22;38422;53.172;6.974;2023-12-04T09:33:38;0.80;99.90
52513;DHT22;38422;53.172;6.974;2023-12-04T09:36:04;0.80;99.90
52513;DHT22;38422;53.172;6.974;2023-12-04T09:38:30;0.80;99.90
52513;DHT22;38422;53.172;6.974;2023-12-04T09:40:59;0.90;99.90
52513;DHT22;38422;53.172;6.974;2023-12-04T09:43:26;0.90;99.90
52513;DHT22;38422;53.172;6.974;2023-12-04T09:45:52;0.90;99.90
52513;DHT22;38422;53.172;6.974;2023-12-04T09:48:18;0.90;99.90
52513;DHT22;38422;53.172;6.974;2023-12-04T09:50:47;0.90;99.90
52513;DHT22;38422;53.172;6.974;2023-12-04T09:53:12;1.00;99.90
52513;DHT22;38422;53.172;6.974;2023-12-04T09:55:39;1.00;99.90
52513;DHT22;38422;53.172;6.974;2023-12-04T09:58:05;1.00;99.90
52513;DHT22;38422;53.172;6.974;2023-12-04T10:00:32;1.00;99.90
52513;DHT22;38422;53.172;6.974;2023-12-04T10:02:58;1.00;99.90
52513;DHT22;38422;53.172;6.974;2023-12-04T10:05:25;1.10;99.90
52513;DHT22;38422;53.172;6.974;2023-12-04T10:07:51;1.10;99.90
52513;DHT22;38422;53.172;6.974;2023-12-04T10:10:16;1.10;99.90
52513;DHT22;38422;53.172;6.974;2023-12-04T10:12:43;1.20;99.90
52513;DHT22;38422;53.172;6.974;2023-12-04T10:15:11;1.20;99.90
52513;DHT22;38422;53.172;6.974;2023-12-04T10:17:39;1.20;99.90
52513;DHT22;38422;53.172;6.974;2023-12-04T10:20:10;1.20;99.90
52513;DHT22;38422;53.172;6.974;2023-12-04T10:22:57;1.30;99.90
52513;DHT22;38422;53.172;6.974;2023-12-04T10:25:25;1.30;99.90
52513;DHT22;38422;53.172;6.974;2023-12-04T10:27:52;1.30;99.90
52513;DHT22;38422;53.172;6.974;2023-12-04T10:30:28;1.30;99.90
52513;DHT22;38422;53.172;6.974;2023-12-04T10:32:55;1.30;99.90
52513;DHT22;38422;53.172;6.974;2023-12-04T10:35:21;1.30;99.90
52513;DHT22;38422;53.172;6.974;2023-12-04T10:37:52;1.30;99.90
52513;DHT22;38422;53.172;6.974;2023-12-04T10:40:29;1.30;99.90
52513;DHT22;38422;53.172;6.974;2023-12-04T10:45:40;1.30;99.90
52513;DHT22;38422;53.172;6.974;2023-12-04T10:48:08;1.30;99.90
52513;DHT22;38422;53.172;6.974;2023-12-04T10:50:37;1.40;99.90
52513;DHT22;38422;53.172;6.974;2023-12-04T10:53:11;1.40;99.90
52513;DHT22;38422;53.172;6.974;2023-12-04T10:55:38;1.40;99.90
52513;DHT22;38422;53.172;6.974;2023-12-04T10:58:07;1.40;99.90
52513;DHT22;38422;53.172;6.974;2023-12-04T11:00:33;1.40;99.90
52513;DHT22;38422;53.172;6.974;2023-12-04T11:03:25;1.40;99.90
52513;DHT22;38422;53.172;6.974;2023-12-04T11:06:00;1.40;99.90
52513;DHT22;38422;53.172;6.974;2023-12-04T11:08:28;1.40;99.90
52513;DHT22;38422;53.172;6.974;2023-12-04T11:11:04;1.40;99.90
52513;DHT22;38422;53.172;6.974;2023-12-04T11:13:30;1.40;99.90
52513;DHT22;38422;53.172;6.974;2023-12-04T11:16:01;1.40;99.90
52513;DHT22;38422;53.172;6.974;2023-12-04T11:18:31;1.40;99.90
52513;DHT22;38422;53.172;6.974;2023-12-04T11:21:01;1.50;99.90
52513;DHT22;38422;53.172;6.974;2023-12-04T11:23:30;1.50;99.90
52513;DHT22;38422;53.172;6.974;2023-12-04T11:25:56;1.50;99.90
52513;DHT22;38422;53.172;6.974;2023-12-04T11:28:23;1.60;99.90
52513;DHT22;38422;53.172;6.974;2023-12-04T11:30:50;1.60;99.90
52513;DHT22;38422;53.172;6.974;2023-12-04T11:33:17;1.60;99.90
52513;DHT22;38422;53.172;6.974;2023-12-04T11:35:44;1.60;99.90
52513;DHT22;38422;53.172;6.974;2023-12-04T11:38:13;1.60;99.90
52513;DHT22;38422;53.172;6.974;2023-12-04T11:40:41;1.70;99.90
52513;DHT22;38422;53.172;6.974;2023-12-04T11:43:27;1.70;99.90
52513;DHT22;38422;53.172;6.974;2023-12-04T11:45:54;1.70;99.90
52513;DHT22;38422;53.172;6.974;2023-12-04T11:48:32;1.80;99.90
52513;DHT22;38422;53.172;6.974;2023-12-04T11:50:59;1.80;99.90
52513;DHT22;38422;53.172;6.974;2023-12-04T11:53:26;1.80;99.90
52513;DHT22;38422;53.172;6.974;2023-12-04T11:55:55;1.80;99.90
52513;DHT22;38422;53.172;6.974;2023-12-04T11:58:22;1.80;99.90
52513;DHT22;38422;53.172;6.974;2023-12-04T12:00:48;1.80;99.90
52513;DHT22;38422;53.172;6.974;2023-12-04T12:03:15;1.80;99.90
52513;DHT22;38422;53.172;6.974;2023-12-04T12:05:41;1.80;99.90
52513;DHT22;38422;53.172;6.974;2023-12-04T12:08:08;1.80;99.90
52513;DHT22;38422;53.172;6.974;2023-12-04T12:10:34;1.80;99.90
52513;DHT22;38422;53.172;6.974;2023-12-04T12:13:00;1.80;99.90
52513;DHT22;38422;53.172;6.974;2023-12-04T12:15:27;1.80;99.90
52513;DHT22;38422;53.172;6.974;2023-12-04T12:17:53;1.80;99.90
52513;DHT22;38422;53.172;6.974;2023-12-04T12:20:19;1.80;99.90
52513;DHT22;38422;53.172;6.974;2023-12-04T12:22:49;1.80;99.90
52513;DHT22;38422;53.172;6.974;2023-12-04T12:25:15;1.90;99.90
52513;DHT22;38422;53.172;6.974;2023-12-04T12:27:41;1.90;99.90
52513;DHT22;38422;53.172;6.974;2023-12-04T12:30:07;1.80;99.90
52513;DHT22;38422;53.172;6.974;2023-12-04T12:32:34;1.80;99.90
52513;DHT22;38422;53.172;6.974;2023-12-04T12:35:00;1.80;99.90
52513;DHT22;38422;53.172;6.974;2023-12-04T12:37:26;1.90;99.90
52513;DHT22;38422;53.172;6.974;2023-12-04T12:39:53;1.90;99.90
52513;DHT22;38422;53.172;6.974;2023-12-04T12:42:26;1.90;99.90
52513;DHT22;38422;53.172;6.974;2023-12-04T12:44:53;1.90;99.90
52513;DHT22;38422;53.172;6.974;2023-12-04T12:47:20;1.90;99.90
52513;DHT22;38422;53.172;6.974;2023-12-04T12:49:45;1.90;99.90
52513;DHT22;38422;53.172;6.974;2023-12-04T12:52:12;1.90;99.90
52513;DHT22;38422;53.172;6.974;2023-12-04T12:54:38;2.00;99.90
52513;DHT22;38422;53.172;6.974;2023-12-04T12:57:04;2.00;99.90
52513;DHT22;38422;53.172;6.974;2023-12-04T12:59:30;2.00;99.90
52513;DHT22;38422;53.172;6.974;2023-12-04T13:01:56;2.00;99.90
52513;DHT22;38422;53.172;6.974;2023-12-04T13:04:26;2.00;99.90
52513;DHT22;38422;53.172;6.974;2023-12-04T13:06:52;2.00;99.90
52513;DHT22;38422;53.172;6.974;2023-12-04T13:09:18;2.00;99.90
52513;DHT22;38422;53.172;6.974;2023-12-04T13:11:48;2.00;99.90
52513;DHT22;38422;53.172;6.974;2023-12-04T13:14:14;1.90;99.90
52513;DHT22;38422;53.172;6.974;2023-12-04T13:16:40;1.90;99.90
52513;DHT22;38422;53.172;6.974;2023-12-04T13:19:06;1.90;99.90
52513;DHT22;38422;53.172;6.974;2023-12-04T13:21:31;1.90;99.90
52513;DHT22;38422;53.172;6.974;2023-12-04T13:23:57;1.80;99.90
52513;DHT22;38422;53.172;6.974;2023-12-04T13:26:23;1.80;99.90
52513;DHT22;38422;53.172;6.974;2023-12-04T13:28:49;1.80;99.90
52513;DHT22;38422;53.172;6.974;2023-12-04T13:31:15;1.80;99.90
52513;DHT22;38422;53.172;6.974;2023-12-04T13:33:40;1.80;99.90
52513;DHT22;38422;53.172;6.974;2023-12-04T13:36:09;1.80;99.90
52513;DHT22;38422;53.172;6.974;2023-12-04T13:38:34;1.80;99.90
52513;DHT22;38422;53.172;6.974;2023-12-04T13:41:01;1.80;99.90
52513;DHT22;38422;53.172;6.974;2023-12-04T13:43:44;1.80;99.90
52513;DHT22;38422;53.172;6.974;2023-12-04T13:46:15;1.80;99.90
52513;DHT22;38422;53.172;6.974;2023-12-04T13:48:41;1.80;99.90
52513;DHT22;38422;53.172;6.974;2023-12-04T13:51:10;1.80;99.90
52513;DHT22;38422;53.172;6.974;2023-12-04T13:53:35;1.80;99.90
52513;DHT22;38422;53.172;6.974;2023-12-04T13:56:05;1.80;99.90
52513;DHT22;38422;53.172;6.974;2023-12-04T13:58:37;1.80;99.90
52513;DHT22;38422;53.172;6.974;2023-12-04T14:01:10;1.80;99.90
52513;DHT22;38422;53.172;6.974;2023-12-04T14:03:43;1.80;99.90
52513;DHT22;38422;53.172;6.974;2023-12-04T14:06:10;1.80;99.90
52513;DHT22;38422;53.172;6.974;2023-12-04T14:08:36;1.80;99.90
52513;DHT22;38422;53.172;6.974;2023-12-04T14:11:03;1.80;99.90
52513;DHT22;38422;53.172;6.974;2023-12-04T14:13:29;1.80;99.90
52513;DHT22;38422;53.172;6.974;2023-12-04T14:15:55;1.70;99.90
52513;DHT22;38422;53.172;6.974;2023-12-04T14:18:23;1.70;99.90
52513;DHT22;38422;53.172;6.974;2023-12-04T14:20:49;1.70;99.90
52513;DHT22;38422;53.172;6.974;2023-12-04T14:23:14;1.70;99.90
52513;DHT22;38422;53.172;6.974;2023-12-04T14:25:41;1.70;99.90
52513;DHT22;38422;53.172;6.974;2023-12-04T14:28:06;1.70;99.90
52513;DHT22;38422;53.172;6.974;2023-12-04T14:30:33;1.70;99.90
52513;DHT22;38422;53.172;6.974;2023-12-04T14:32:58;1.70;99.90
52513;DHT22;38422;53.172;6.974;2023-12-04T14:35:24;1.60;99.90
52513;DHT22;38422;53.172;6.974;2023-12-04T14:37:50;1.60;99.90
52513;DHT22;38422;53.172;6.974;2023-12-04T14:40:16;1.60;99.90
52513;DHT22;38422;53.172;6.974;2023-12-04T14:42:43;1.60;99.90
52513;DHT22;38422;53.172;6.974;2023-12-04T14:45:09;1.60;99.90
52513;DHT22;38422;53.172;6.974;2023-12-04T14:47:35;1.60;99.90
52513;DHT22;38422;53.172;6.974;2023-12-04T14:50:03;1.60;99.90
52513;DHT22;38422;53.172;6.974;2023-12-04T14:52:28;1.50;99.90
52513;DHT22;38422;53.172;6.974;2023-12-04T14:54:55;1.50;99.90
52513;DHT22;38422;53.172;6.974;2023-12-04T14:57:36;1.50;99.90
52513;DHT22;38422;53.172;6.974;2023-12-04T15:00:10;1.40;99.90
52513;DHT22;38422;53.172;6.974;2023-12-04T15:02:55;1.40;99.90
52513;DHT22;38422;53.172;6.974;2023-12-04T15:05:39;1.40;99.90
52513;DHT22;38422;53.172;6.974;2023-12-04T15:08:05;1.40;99.90
52513;DHT22;38422;53.172;6.974;2023-12-04T15:10:50;1.40;99.90
52513;DHT22;38422;53.172;6.974;2023-12-04T15:13:45;1.40;99.90
52513;DHT22;38422;53.172;6.974;2023-12-04T15:16:20;1.40;99.90
52513;DHT22;38422;53.172;6.974;2023-12-04T15:19:06;1.30;99.90
52513;DHT22;38422;53.172;6.974;2023-12-04T15:21:50;1.30;99.90
52513;DHT22;38422;53.172;6.974;2023-12-04T15:24:16;1.30;99.90
52513;DHT22;38422;53.172;6.974;2023-12-04T15:26:41;1.30;99.90
52513;DHT22;38422;53.172;6.974;2023-12-04T15:29:07;1.30;99.90
52513;DHT22;38422;53.172;6.974;2023-12-04T15:31:33;1.30;99.90
52513;DHT22;38422;53.172;6.974;2023-12-04T15:33:59;1.30;99.90
52513;DHT22;38422;53.172;6.974;2023-12-04T15:36:24;1.30;99.90
52513;DHT22;38422;53.172;6.974;2023-12-04T15:38:50;1.30;99.90
52513;DHT22;38422;53.172;6.974;2023-12-04T15:41:16;1.30;99.90
52513;DHT22;38422;53.172;6.974;2023-12-04T15:43:43;1.30;99.90
52513;DHT22;38422;53.172;6.974;2023-12-04T15:46:13;1.30;99.90